Time;durP1;ratioP1;P1;durP2;ratioP2;P2;SDS_P1;SDS_P2;PMS_P1;PMS_P2;Temp;Humidity;BMP_temperature;BMP_pressure;BME280_temperature;BME280_humidity;BME280_pressure;Samples;Min_cycle;Max_cycle;Signal;HPM_P1;HPM_P2
2021/09/16 00:01:37;;;;;;;13.60;8.83;;;;;;;13.37;61.21;100829.91;1708594;82;21066;-55
2021/09/16 00:04:05;;;;;;;18.55;9.38;;;;;;;13.38;61.10;100828.47;1711196;82;21106;-55
2021/09/16 00:06:32;;;;;;;15.32;8.60;;;;;;;13.34;61.17;100832.32;1707937;82;21568;-54
2021/09/16 00:08:59;;;;;;;19.35;10.95;;;;;;;13.28;61.24;100830.19;1694336;82;21070;-55
2021/09/16 00:11:25;;;;;;;21.30;10.50;;;;;;;13.24;61.28;100836.67;1709166;82;21008;-55
2021/09/16 00:13:52;;;;;;;20.80;10.88;;;;;;;13.18;61.35;100835.40;1707504;82;21593;-56
2021/09/16 00:16:20;;;;;;;16.20;9.38;;;;;;;13.11;61.41;100844.81;1702160;82;21103;-56
2021/09/16 00:18:47;;;;;;;20.48;10.43;;;;;;;13.06;61.38;100841.69;1695826;82;21405;-55
2021/09/16 00:21:15;;;;;;;16.65;9.10;;;;;;;13.01;61.43;100843.87;1715619;82;21063;-55
2021/09/16 00:23:41;;;;;;;17.92;10.48;;;;;;;12.98;61.55;100846.80;1708650;82;21535;-55
2021/09/16 00:26:07;;;;;;;16.02;9.63;;;;;;;12.94;61.71;100840.91;1711702;82;21109;-56
2021/09/16 00:28:34;;;;;;;16.25;9.40;;;;;;;12.91;61.85;100837.68;1712900;82;20988;-56
2021/09/16 00:31:00;;;;;;;16.35;8.93;;;;;;;12.90;62.00;100837.34;1693102;82;21400;-56
2021/09/16 00:33:28;;;;;;;15.63;9.55;;;;;;;12.91;61.97;100837.22;1718538;82;21067;-55
2021/09/16 00:35:55;;;;;;;13.35;8.83;;;;;;;12.99;61.97;100832.61;1688076;82;21119;-56
2021/09/16 00:38:21;;;;;;;16.17;9.60;;;;;;;13.04;61.98;100834.38;1722454;81;21056;-56
2021/09/16 00:40:48;;;;;;;15.25;10.18;;;;;;;13.09;62.02;100838.80;1733871;80;21110;-56
2021/09/16 00:43:15;;;;;;;16.10;10.30;;;;;;;13.07;62.18;100838.09;1717487;80;21078;-56
2021/09/16 00:45:42;;;;;;;17.48;10.38;;;;;;;13.05;62.33;100838.70;1731776;80;21716;-56
2021/09/16 00:48:10;;;;;;;19.35;10.18;;;;;;;13.04;62.34;100846.27;1698287;82;21008;-55
2021/09/16 00:50:37;;;;;;;20.43;12.18;;;;;;;13.03;62.30;100845.07;1732484;80;21091;-55
2021/09/16 00:53:04;;;;;;;14.85;9.85;;;;;;;12.98;61.94;100845.48;1701471;82;21091;-55
2021/09/16 00:55:30;;;;;;;17.90;9.95;;;;;;;12.96;61.20;100856.63;1705310;82;21951;-56
2021/09/16 00:58:01;;;;;;;18.77;11.43;;;;;;;12.94;60.63;100850.15;1729954;80;21094;-56
2021/09/16 01:00:27;;;;;;;17.12;10.68;;;;;;;12.95;60.51;100851.01;1721609;81;21491;-56
2021/09/16 01:02:55;;;;;;;20.02;11.68;;;;;;;12.92;60.23;100850.77;1728156;80;21066;-56
2021/09/16 01:05:22;;;;;;;16.52;11.00;;;;;;;12.88;60.14;100855.95;1694557;82;21025;-56
2021/09/16 01:07:48;;;;;;;19.15;11.53;;;;;;;12.83;60.14;100856.81;1736263;80;21145;-55
2021/09/16 01:10:16;;;;;;;17.35;10.48;;;;;;;12.82;60.25;100860.41;1684653;82;21054;-55
2021/09/16 01:12:46;;;;;;;15.72;10.93;;;;;;;12.78;60.47;100856.36;1703436;82;21371;-55
2021/09/16 01:15:11;;;;;;;17.15;9.58;;;;;;;12.74;60.66;100858.88;1714707;81;21396;-55
2021/09/16 01:17:39;;;;;;;13.43;9.58;;;;;;;12.75;61.03;100857.92;1734005;80;21067;-56
2021/09/16 01:20:07;;;;;;;18.92;11.05;;;;;;;12.79;61.25;100857.55;1741897;80;21922;-55
2021/09/16 01:22:35;;;;;;;17.57;10.53;;;;;;;12.85;61.44;100860.16;1716740;82;21118;-55
2021/09/16 01:25:03;;;;;;;16.97;9.03;;;;;;;12.88;61.53;100859.92;1697329;82;21013;-55
2021/09/16 01:27:30;;;;;;;14.87;9.65;;;;;;;12.85;61.65;100852.73;1744038;80;21067;-55
2021/09/16 01:29:57;;;;;;;19.40;10.30;;;;;;;12.84;61.76;100858.48;1734438;80;21473;-56
2021/09/16 01:32:24;;;;;;;18.73;10.80;;;;;;;12.80;61.73;100857.89;1738601;80;21017;-55
2021/09/16 01:34:52;;;;;;;14.65;9.95;;;;;;;12.78;61.45;100857.68;1738107;80;21102;-55
2021/09/16 01:37:21;;;;;;;17.32;10.68;;;;;;;12.73;61.01;100854.58;1740438;80;21106;-56
2021/09/16 01:39:47;;;;;;;16.02;9.28;;;;;;;12.69;61.17;100846.53;1729582;80;21041;-55
2021/09/16 01:42:15;;;;;;;16.52;8.68;;;;;;;12.62;61.69;100848.84;1709995;82;21732;-56
2021/09/16 01:44:46;;;;;;;15.75;9.18;;;;;;;12.56;62.08;100846.71;1716205;82;21089;-55
2021/09/16 01:47:13;;;;;;;16.57;9.58;;;;;;;12.49;62.41;100838.91;1678138;82;21280;-56
2021/09/16 01:49:40;;;;;;;15.48;9.70;;;;;;;12.41;62.62;100845.66;1712373;82;21043;-55
2021/09/16 01:52:54;;;;;;;14.35;8.95;;;;;;;12.46;62.67;100836.05;1797495;78;22754;-55
2021/09/16 01:55:20;;;;;;;15.48;9.18;;;;;;;12.49;62.47;100838.91;1775929;80;21086;-55
2021/09/16 01:57:47;;;;;;;16.27;10.28;;;;;;;12.53;62.32;100843.83;1766493;80;21062;-55
2021/09/16 02:00:14;;;;;;;16.97;9.73;;;;;;;12.56;62.10;100838.80;1748275;80;21474;-55
2021/09/16 02:02:41;;;;;;;18.20;10.63;;;;;;;12.55;62.02;100843.70;1772313;80;21093;-55
2021/09/16 02:05:09;;;;;;;15.93;10.82;;;;;;;12.52;61.85;100845.27;1771499;79;21052;-55
2021/09/16 02:07:36;;;;;;;15.85;10.03;;;;;;;12.48;61.83;100845.17;1767960;79;21544;-56
2021/09/16 02:10:05;;;;;;;16.42;10.32;;;;;;;12.44;61.77;100851.19;1769212;79;21026;-55
2021/09/16 02:12:31;;;;;;;18.12;9.50;;;;;;;12.41;61.84;100847.47;1771579;80;21069;-55
2021/09/16 02:14:59;;;;;;;19.20;11.40;;;;;;;12.39;61.96;100849.36;1770795;80;21066;-55
2021/09/16 02:17:25;;;;;;;14.43;10.10;;;;;;;12.36;62.00;100853.11;1774642;80;21090;-55
2021/09/16 02:19:54;;;;;;;14.40;9.65;;;;;;;12.31;62.21;100845.21;1768666;80;21043;-55
2021/09/16 02:22:20;;;;;;;17.32;11.05;;;;;;;12.27;62.29;100849.87;1752736;80;22405;-56
2021/09/16 02:24:47;;;;;;;17.15;10.25;;;;;;;12.23;62.36;100845.81;1779223;80;21030;-55
2021/09/16 02:27:13;;;;;;;23.32;10.40;;;;;;;12.19;62.50;100854.45;1771038;80;21575;-55
2021/09/16 02:29:40;;;;;;;16.77;10.23;;;;;;;12.22;62.65;100849.39;1770531;79;21078;-55
2021/09/16 02:32:08;;;;;;;15.18;9.83;;;;;;;12.30;62.66;100850.12;1769439;79;21014;-55
2021/09/16 02:34:35;;;;;;;17.57;9.38;;;;;;;12.35;62.69;100848.77;1772883;80;21068;-54
2021/09/16 02:37:02;;;;;;;15.80;9.58;;;;;;;12.39;62.71;100856.82;1770291;80;21058;-55
2021/09/16 02:39:30;;;;;;;16.17;9.45;;;;;;;12.40;62.76;100854.52;1770670;80;21030;-55
2021/09/16 02:41:56;;;;;;;15.28;9.05;;;;;;;12.39;62.87;100848.91;1768624;79;21055;-55
2021/09/16 02:44:23;;;;;;;14.15;9.05;;;;;;;12.38;62.80;100852.49;1766305;79;21046;-55
2021/09/16 02:46:50;;;;;;;16.57;9.50;;;;;;;12.38;62.67;100850.34;1742850;80;21333;-55
2021/09/16 02:49:18;;;;;;;14.68;9.03;;;;;;;12.31;62.56;100840.77;1741541;79;21446;-55
2021/09/16 02:51:44;;;;;;;15.60;10.10;;;;;;;12.26;62.56;100850.84;1754571;79;21533;-55
2021/09/16 02:54:11;;;;;;;15.80;10.53;;;;;;;12.22;62.50;100854.22;1738688;80;21041;-55
2021/09/16 02:56:38;;;;;;;17.70;11.22;;;;;;;12.17;62.41;100859.02;1735768;80;21093;-55
2021/09/16 02:59:05;;;;;;;14.20;9.73;;;;;;;12.11;62.41;100860.81;1736570;80;21146;-55
2021/09/16 03:01:31;;;;;;;17.07;10.58;;;;;;;12.04;62.58;100858.30;1735670;80;21102;-55
2021/09/16 03:03:58;;;;;;;14.53;8.33;;;;;;;12.01;62.68;100859.38;1734432;80;21092;-56
2021/09/16 03:06:24;;;;;;;17.50;9.83;;;;;;;12.06;62.67;100856.38;1737940;80;21100;-57
2021/09/16 03:08:53;;;;;;;15.75;9.53;;;;;;;12.13;62.72;100861.52;1745013;80;21582;-58
2021/09/16 03:11:20;;;;;;;14.53;9.33;;;;;;;12.16;62.76;100861.28;1738115;80;22000;-56
2021/09/16 03:13:49;;;;;;;17.48;9.43;;;;;;;12.18;62.92;100862.48;1738622;81;21378;-56
2021/09/16 03:16:17;;;;;;;16.20;9.00;;;;;;;12.18;62.97;100862.48;1738252;80;21517;-58
2021/09/16 03:18:43;;;;;;;18.17;9.75;;;;;;;12.14;63.02;100850.02;1710394;80;20999;-58
2021/09/16 03:21:09;;;;;;;14.35;8.70;;;;;;;12.14;63.08;100852.66;1742538;80;21082;-56
2021/09/16 03:23:37;;;;;;;15.15;9.93;;;;;;;12.13;62.90;100851.46;1745438;81;22426;-57
2021/09/16 03:26:03;;;;;;;14.63;8.95;;;;;;;12.10;63.04;100846.42;1738338;82;21018;-57
2021/09/16 03:28:30;;;;;;;19.00;9.33;;;;;;;12.06;63.07;100837.92;1713639;82;21504;-56
2021/09/16 03:30:56;;;;;;;16.82;9.10;;;;;;;12.02;62.89;100831.19;1706212;81;21078;-56
2021/09/16 03:33:22;;;;;;;14.40;8.93;;;;;;;11.96;63.08;100832.52;1744111;80;21073;-56
2021/09/16 03:35:49;;;;;;;14.03;8.63;;;;;;;11.95;63.26;100836.11;1741674;80;22884;-56
2021/09/16 03:38:17;;;;;;;13.53;8.73;;;;;;;11.99;63.18;100830.97;1708524;81;21109;-56
2021/09/16 03:40:44;;;;;;;13.55;8.75;;;;;;;12.01;63.12;100834.80;1741063;81;21129;-55
2021/09/16 03:43:10;;;;;;;13.50;9.28;;;;;;;11.96;63.03;100835.16;1734217;81;21125;-55
2021/09/16 03:45:37;;;;;;;14.63;9.08;;;;;;;11.92;63.07;100839.47;1708017;82;21116;-55
2021/09/16 03:48:04;;;;;;;13.18;9.05;;;;;;;11.85;63.24;100837.30;1701483;82;21082;-58
2021/09/16 03:50:32;;;;;;;14.87;9.28;;;;;;;11.81;63.26;100848.20;1735489;80;21050;-55
2021/09/16 03:53:00;;;;;;;15.95;8.93;;;;;;;11.74;63.41;100845.20;1757026;80;21073;-55
2021/09/16 03:55:27;;;;;;;22.13;15.05;;;;;;;11.68;63.50;100842.57;1773222;80;21054;-55
2021/09/16 03:57:55;;;;;;;18.98;13.75;;;;;;;11.63;63.75;100846.50;1771133;78;21026;-55
2021/09/16 04:00:21;;;;;;;21.40;14.33;;;;;;;11.58;63.95;100838.11;1769798;80;21114;-55
2021/09/16 04:02:48;;;;;;;16.95;10.28;;;;;;;11.56;63.98;100841.34;1744981;80;21077;-55
2021/09/16 04:05:14;;;;;;;17.82;9.80;;;;;;;11.59;63.97;100839.80;1770418;80;22449;-55
2021/09/16 04:07:41;;;;;;;12.23;7.08;;;;;;;11.68;63.90;100835.98;1767297;80;21074;-56
2021/09/16 04:10:09;;;;;;;14.38;9.10;;;;;;;11.85;63.84;100843.89;1764902;80;21522;-55
2021/09/16 04:12:37;;;;;;;13.40;10.18;;;;;;;11.94;63.81;100845.48;1766871;80;21078;-55
2021/09/16 04:15:06;;;;;;;20.92;11.53;;;;;;;11.98;63.71;100857.46;1769742;80;21101;-55
2021/09/16 04:17:33;;;;;;;16.12;9.50;;;;;;;12.00;63.69;100873.54;1740244;80;21042;-55
2021/09/16 04:19:59;;;;;;;14.47;9.93;;;;;;;12.04;63.86;100877.60;1766612;80;21090;-55
2021/09/16 04:22:25;;;;;;;17.95;9.25;;;;;;;12.12;63.97;100878.78;1766569;80;21065;-57
2021/09/16 04:24:52;;;;;;;17.32;9.70;;;;;;;12.16;63.94;100887.67;1777458;80;21530;-56
2021/09/16 04:27:18;;;;;;;16.45;9.98;;;;;;;12.16;64.00;100885.03;1752197;80;21094;-55
2021/09/16 04:29:45;;;;;;;16.93;9.20;;;;;;;12.21;64.16;100889.46;1753438;80;21001;-55
2021/09/16 04:32:11;;;;;;;11.70;8.20;;;;;;;12.34;64.29;100894.62;1770877;80;21055;-55
2021/09/16 04:34:39;;;;;;;16.23;8.25;;;;;;;12.52;64.33;100894.09;1743886;80;21126;-55
2021/09/16 04:37:06;;;;;;;15.03;9.65;;;;;;;12.69;64.84;100901.48;1772353;80;21121;-56
2021/09/16 04:39:33;;;;;;;15.72;10.03;;;;;;;12.85;65.70;100908.20;1769048;80;21037;-57
2021/09/16 04:42:01;;;;;;;15.58;10.90;;;;;;;12.91;65.55;100908.53;1765865;80;21069;-55
2021/09/16 04:44:28;;;;;;;17.37;10.20;;;;;;;12.91;65.40;100916.46;1776392;80;21098;-55
2021/09/16 04:46:54;;;;;;;15.30;9.15;;;;;;;12.85;65.65;100915.63;1766719;80;21037;-52
2021/09/16 04:49:21;;;;;;;13.58;8.90;;;;;;;12.82;66.12;100915.37;1770627;79;21126;-56
2021/09/16 04:51:48;;;;;;;14.13;8.75;;;;;;;12.89;66.46;100913.08;1773712;80;21549;-55
2021/09/16 04:54:16;;;;;;;19.48;9.63;;;;;;;12.95;66.69;100919.20;1749400;80;21008;-55
2021/09/16 04:56:42;;;;;;;14.83;8.73;;;;;;;13.02;67.08;100914.25;1752149;80;21560;-73
2021/09/16 04:59:09;;;;;;;15.30;9.93;;;;;;;13.06;67.25;100918.80;1757281;80;21109;-64
2021/09/16 05:01:36;;;;;;;14.85;8.90;;;;;;;13.07;67.03;100914.70;1731199;80;21220;-69
2021/09/16 05:04:04;;;;;;;14.25;9.83;;;;;;;13.13;67.04;100910.25;1754459;80;21051;-56
2021/09/16 05:06:31;;;;;;;17.07;9.28;;;;;;;13.20;67.06;100910.58;1755102;80;21098;-57
2021/09/16 05:08:59;;;;;;;15.15;9.03;;;;;;;13.30;67.11;100913.31;1757957;79;21530;-57
2021/09/16 05:11:25;;;;;;;14.20;9.10;;;;;;;13.44;67.02;100907.72;1760193;80;21106;-56
2021/09/16 05:13:53;;;;;;;15.93;10.03;;;;;;;13.59;67.11;100910.89;1757170;80;23159;-57
2021/09/16 05:16:19;;;;;;;16.20;9.70;;;;;;;13.73;67.35;100908.39;1725941;80;22282;-56
2021/09/16 05:18:47;;;;;;;14.18;9.95;;;;;;;13.85;67.47;100909.14;1763325;80;21505;-57
2021/09/16 05:21:14;;;;;;;21.68;10.45;;;;;;;13.95;67.33;100910.03;1753153;80;21066;-56
2021/09/16 05:23:40;;;;;;;16.65;8.95;;;;;;;14.04;67.03;100908.42;1752559;80;21051;-56
2021/09/16 05:26:06;;;;;;;15.78;10.48;;;;;;;14.13;66.77;100908.44;1747531;80;22040;-56
2021/09/16 05:28:33;;;;;;;14.43;9.95;;;;;;;14.21;66.18;100909.11;1752063;80;21086;-56
2021/09/16 05:31:01;;;;;;;18.57;10.05;;;;;;;14.25;65.76;100907.86;1756339;80;21672;-56
2021/09/16 05:33:27;;;;;;;15.70;9.10;;;;;;;14.33;65.15;100900.58;1751229;80;21096;-56
2021/09/16 05:35:55;;;;;;;19.30;8.70;;;;;;;14.41;64.18;100902.56;1718556;82;21106;-63
2021/09/16 05:38:22;;;;;;;14.87;9.05;;;;;;;14.43;63.71;100900.12;1750565;80;22074;-56
2021/09/16 05:40:50;;;;;;;17.20;8.98;;;;;;;14.44;63.22;100902.27;1751134;80;21123;-57
2021/09/16 05:43:18;;;;;;;17.60;8.33;;;;;;;14.46;62.88;100899.02;1757352;80;21051;-56
2021/09/16 05:45:44;;;;;;;13.58;8.30;;;;;;;14.46;62.31;100900.35;1762407;80;21538;-57
2021/09/16 05:48:10;;;;;;;14.53;8.90;;;;;;;14.49;62.33;100902.70;1754389;80;21554;-56
2021/09/16 05:50:37;;;;;;;14.15;7.50;;;;;;;14.53;62.11;100905.45;1750259;80;21095;-56
2021/09/16 05:53:05;;;;;;;11.50;7.58;;;;;;;14.57;61.83;100901.53;1755769;80;21090;-55
2021/09/16 05:55:31;;;;;;;12.20;8.13;;;;;;;14.66;61.40;100902.09;1767235;79;21070;-56
2021/09/16 05:57:58;;;;;;;13.58;7.85;;;;;;;14.73;60.73;100900.23;1760875;80;21066;-56
2021/09/16 06:00:25;;;;;;;15.50;7.20;;;;;;;14.78;59.78;100900.16;1762925;80;22601;-56
2021/09/16 06:02:51;;;;;;;11.55;6.53;;;;;;;14.84;59.30;100903.59;1759137;80;21315;-64
2021/09/16 06:05:18;;;;;;;12.68;7.45;;;;;;;14.92;58.92;100898.08;1769677;80;21098;-62
2021/09/16 06:07:44;;;;;;;11.20;7.22;;;;;;;14.98;58.51;100899.69;1768605;80;21497;-64
2021/09/16 06:10:12;;;;;;;12.20;6.80;;;;;;;15.04;58.26;100897.78;1757683;80;21133;-67
2021/09/16 06:12:40;;;;;;;14.65;6.95;;;;;;;15.13;57.88;100894.81;1769278;80;21600;-67
2021/09/16 06:15:07;;;;;;;11.60;6.75;;;;;;;15.20;57.68;100891.94;1763626;80;21453;-67
2021/09/16 06:17:34;;;;;;;12.37;6.87;;;;;;;15.27;57.39;100897.52;1759316;80;21066;-61
2021/09/16 06:20:00;;;;;;;13.40;6.55;;;;;;;15.34;56.98;100898.62;1759009;80;21071;-59
2021/09/16 06:22:28;;;;;;;13.20;7.28;;;;;;;15.41;56.29;100901.04;1761366;80;21588;-59
2021/09/16 06:24:55;;;;;;;13.75;6.72;;;;;;;15.49;55.03;100892.89;1762077;80;21004;-60
2021/09/16 06:27:21;;;;;;;11.05;6.67;;;;;;;15.56;54.77;100896.63;1762453;80;21380;-59
2021/09/16 06:29:49;;;;;;;11.83;7.05;;;;;;;15.61;53.89;100899.20;1698937;82;21662;-59
2021/09/16 06:32:17;;;;;;;9.63;6.47;;;;;;;15.70;53.19;100897.98;1766030;80;21074;-59
2021/09/16 06:34:44;;;;;;;10.78;7.10;;;;;;;15.79;53.07;100902.48;1760037;80;21134;-60
2021/09/16 06:37:12;;;;;;;11.65;6.58;;;;;;;15.88;53.30;100903.42;1764775;80;21078;-61
2021/09/16 06:39:39;;;;;;;12.82;6.87;;;;;;;15.96;53.53;100898.23;1761790;80;23153;-60
2021/09/16 06:42:06;;;;;;;11.85;6.55;;;;;;;16.05;52.80;100897.84;1740979;80;21136;-59
2021/09/16 06:44:32;;;;;;;11.65;6.90;;;;;;;16.14;52.12;100900.97;1742126;80;22105;-59
2021/09/16 06:47:00;;;;;;;9.73;6.35;;;;;;;16.24;51.73;100903.55;1759084;80;21047;-61
2021/09/16 06:49:26;;;;;;;12.55;7.15;;;;;;;16.31;51.26;100912.13;1761784;80;21091;-61
2021/09/16 06:51:55;;;;;;;10.32;5.85;;;;;;;16.40;52.11;100911.72;1764009;80;21118;-61
2021/09/16 06:54:22;;;;;;;11.05;6.42;;;;;;;16.48;52.71;100908.34;1756430;80;21073;-61
2021/09/16 06:56:49;;;;;;;12.80;6.70;;;;;;;16.55;53.13;100908.58;1744445;80;21055;-61
2021/09/16 06:59:16;;;;;;;9.88;6.12;;;;;;;16.60;52.97;100916.94;1683604;82;21134;-61
2021/09/16 07:01:42;;;;;;;9.83;6.00;;;;;;;16.64;52.20;100916.97;1694900;82;21518;-60
2021/09/16 07:04:09;;;;;;;11.93;6.20;;;;;;;16.68;51.06;100913.05;1697571;82;21250;-60
2021/09/16 07:06:35;;;;;;;10.35;5.40;;;;;;;16.71;51.49;100915.41;1692729;83;21126;-60
2021/09/16 07:09:02;;;;;;;10.35;6.60;;;;;;;16.76;51.97;100911.80;1693591;83;21651;-60
2021/09/16 07:11:29;;;;;;;10.28;5.65;;;;;;;16.83;52.17;100914.70;1691076;82;21091;-61
2021/09/16 07:13:57;;;;;;;10.28;5.17;;;;;;;16.88;51.41;100913.28;1691280;83;21110;-61
2021/09/16 07:16:25;;;;;;;10.58;5.60;;;;;;;16.95;50.11;100909.52;1694274;83;21100;-62
2021/09/16 07:18:52;;;;;;;10.00;4.53;;;;;;;17.03;48.88;100908.75;1697151;83;21094;-62
2021/09/16 07:21:19;;;;;;;11.95;5.60;;;;;;;17.12;48.53;100905.69;1756605;80;21503;-61
2021/09/16 07:23:47;;;;;;;9.70;5.28;;;;;;;17.19;48.33;100911.55;1751796;80;21090;-61
2021/09/16 07:26:14;;;;;;;9.90;6.53;;;;;;;17.27;48.45;100912.13;1757752;80;21131;-62
2021/09/16 07:28:40;;;;;;;10.48;5.45;;;;;;;17.35;48.32;100915.34;1732072;80;21198;-59
2021/09/16 07:31:09;;;;;;;11.53;4.75;;;;;;;17.41;48.12;100910.73;1757529;80;20984;-60
2021/09/16 07:33:35;;;;;;;8.80;4.28;;;;;;;17.47;46.76;100908.80;1756127;80;21075;-60
2021/09/16 07:36:02;;;;;;;10.25;4.72;;;;;;;17.55;46.09;100902.21;1751612;80;21003;-61
2021/09/16 07:38:28;;;;;;;9.45;4.33;;;;;;;17.63;45.49;100900.94;1739837;80;21094;-60
2021/09/16 07:40:55;;;;;;;9.90;4.37;;;;;;;17.73;45.16;100899.98;1754988;80;21107;-60
2021/09/16 07:43:21;;;;;;;8.38;4.12;;;;;;;17.80;45.19;100898.35;1738180;80;21050;-61
2021/09/16 07:45:48;;;;;;;7.87;4.00;;;;;;;17.86;44.65;100900.39;1738943;80;21012;-61
2021/09/16 07:48:16;;;;;;;7.65;3.45;;;;;;;17.92;44.34;100902.47;1758854;80;21059;-61
2021/09/16 07:50:42;;;;;;;6.12;3.02;;;;;;;18.00;44.05;100904.31;1755846;79;21086;-61
2021/09/16 07:53:10;;;;;;;7.03;2.95;;;;;;;18.05;42.60;100904.67;1753455;80;21688;-61
2021/09/16 07:55:37;;;;;;;5.92;2.65;;;;;;;18.08;42.01;100903.03;1738000;80;21051;-62
2021/09/16 07:58:05;;;;;;;5.85;2.77;;;;;;;18.14;41.87;100899.74;1742598;80;21028;-61
2021/09/16 08:00:32;;;;;;;5.90;2.65;;;;;;;18.17;41.67;100896.77;1729222;82;21533;-63
2021/09/16 08:02:59;;;;;;;6.53;2.98;;;;;;;18.20;41.67;100895.59;1744261;81;21688;-63
2021/09/16 08:05:26;;;;;;;7.53;3.05;;;;;;;18.24;41.82;100899.62;1745067;80;21138;-64
2021/09/16 08:07:52;;;;;;;5.15;2.15;;;;;;;18.30;42.42;100898.95;1740376;80;21106;-63
2021/09/16 08:10:19;;;;;;;5.53;2.15;;;;;;;18.35;41.35;100895.82;1745318;80;21051;-62
2021/09/16 08:12:46;;;;;;;6.72;2.45;;;;;;;18.40;41.16;100894.01;1738841;81;21062;-62
2021/09/16 08:15:14;;;;;;;6.53;2.40;;;;;;;18.46;41.62;100896.01;1724575;82;21008;-64
2021/09/16 08:17:40;;;;;;;4.87;1.67;;;;;;;18.54;42.23;100896.03;1748570;80;21785;-62
2021/09/16 08:20:08;;;;;;;5.28;1.80;;;;;;;18.60;41.47;100892.73;1717573;81;21043;-60
2021/09/16 08:22:36;;;;;;;6.75;2.45;;;;;;;18.68;39.80;100890.59;1744863;81;21102;-61
2021/09/16 08:25:05;;;;;;;3.58;1.30;;;;;;;18.78;39.61;100895.75;1741595;81;21079;-61
2021/09/16 08:27:32;;;;;;;3.10;1.20;;;;;;;18.86;39.93;100892.66;1742675;80;21700;-61
2021/09/16 08:29:59;;;;;;;4.40;1.70;;;;;;;18.97;38.97;100888.82;1721980;81;21170;-63
2021/09/16 08:32:26;;;;;;;3.85;1.10;;;;;;;19.06;38.64;100894.51;1742461;82;21050;-61
2021/09/16 08:34:52;;;;;;;3.35;1.20;;;;;;;19.15;38.23;100895.82;1744041;81;21015;-62
2021/09/16 08:37:21;;;;;;;4.30;1.52;;;;;;;19.22;38.31;100886.17;1739236;80;21474;-62
2021/09/16 08:39:47;;;;;;;5.83;2.47;;;;;;;19.29;39.13;100893.83;1741004;80;21066;-63
2021/09/16 08:42:14;;;;;;;4.25;1.62;;;;;;;19.31;38.80;100892.64;1739810;80;21098;-63
2021/09/16 08:44:42;;;;;;;4.90;1.98;;;;;;;19.32;38.07;100886.83;1748342;81;21079;-63
2021/09/16 08:47:11;;;;;;;3.87;1.40;;;;;;;19.36;38.77;100885.98;1738164;81;21553;-62
2021/09/16 08:49:37;;;;;;;6.28;2.40;;;;;;;19.44;38.67;100890.81;1744222;81;21604;-63
2021/09/16 08:52:05;;;;;;;5.08;2.00;;;;;;;19.53;38.13;100890.80;1721629;81;21063;-63
2021/09/16 08:54:32;;;;;;;5.10;2.10;;;;;;;19.59;38.77;100892.30;1741924;80;21082;-63
2021/09/16 08:56:59;;;;;;;5.53;1.80;;;;;;;19.68;39.23;100893.11;1744761;80;21371;-63
2021/09/16 08:59:26;;;;;;;3.75;1.57;;;;;;;19.79;38.47;100894.13;1770042;80;21092;-62
2021/09/16 09:01:53;;;;;;;6.92;2.35;;;;;;;19.89;38.36;100887.26;1737205;80;21075;-63
2021/09/16 09:04:22;;;;;;;5.53;2.22;;;;;;;19.99;37.91;100888.41;1765511;80;21618;-63
2021/09/16 09:07:01;;;;;;;4.67;1.80;;;;;;;20.04;37.37;100884.70;1763638;80;21391;-63
2021/09/16 09:09:29;;;;;;;5.85;1.85;;;;;;;20.10;37.55;100885.84;1759763;79;21104;-62
2021/09/16 09:12:11;;;;;;;6.00;2.15;;;;;;;20.13;37.26;100886.33;1764169;80;21058;-62
2021/09/16 09:14:41;;;;;;;7.53;2.80;;;;;;;20.18;37.86;100881.30;1768454;80;21063;-63
2021/09/16 09:17:22;;;;;;;6.12;2.85;;;;;;;20.28;38.96;100882.42;1767393;80;21074;-63
2021/09/16 09:19:50;;;;;;;6.05;2.52;;;;;;;20.41;39.13;100884.55;1768292;80;21840;-61
2021/09/16 09:22:19;;;;;;;4.50;2.40;;;;;;;20.53;39.23;100878.30;1763741;79;20999;-63
2021/09/16 09:24:47;;;;;;;7.65;2.58;;;;;;;20.62;38.85;100877.73;1744383;80;21117;-62
2021/09/16 09:27:26;;;;;;;6.15;2.08;;;;;;;20.68;38.14;100876.55;1748914;80;21699;-63
2021/09/16 09:30:15;;;;;;;6.15;2.15;;;;;;;20.72;37.50;100878.36;1765266;80;21000;-63
2021/09/16 09:33:05;;;;;;;6.80;2.77;;;;;;;20.73;37.71;100878.19;1741854;80;21458;-62
2021/09/16 09:35:43;;;;;;;5.33;2.20;;;;;;;20.72;37.43;100873.84;1761917;80;21141;-63
2021/09/16 09:38:21;;;;;;;4.90;1.98;;;;;;;20.74;37.20;100880.35;1763768;80;21058;-62
2021/09/16 09:40:51;;;;;;;5.12;1.87;;;;;;;20.80;36.81;100877.48;1764327;80;21026;-62
2021/09/16 09:43:34;;;;;;;5.90;1.37;;;;;;;20.83;36.41;100878.44;1735424;80;21022;-63
2021/09/16 09:46:09;;;;;;;4.78;1.70;;;;;;;20.89;37.25;100877.74;1760857;80;21583;-62
2021/09/16 09:48:45;;;;;;;9.05;2.20;;;;;;;20.95;36.09;100868.50;1761461;80;21559;-63
2021/09/16 09:51:13;;;;;;;6.20;2.72;;;;;;;20.97;36.10;100864.31;1763010;80;21022;-63
2021/09/16 09:53:43;;;;;;;5.97;2.20;;;;;;;20.96;35.85;100867.98;1763247;80;21079;-63
2021/09/16 09:56:19;;;;;;;4.90;2.08;;;;;;;20.96;35.84;100855.46;1713589;82;21166;-63
2021/09/16 09:58:46;;;;;;;4.30;1.62;;;;;;;21.03;36.48;100856.06;1706325;83;21789;-63
2021/09/16 10:01:34;;;;;;;3.10;1.30;;;;;;;21.13;36.95;100855.30;1705781;82;21094;-63
2021/09/16 10:04:26;;;;;;;5.87;2.20;;;;;;;21.24;36.36;100852.71;1682821;83;21224;-63
2021/09/16 10:06:59;;;;;;;5.58;2.17;;;;;;;21.38;36.71;100851.06;1682099;83;21106;-64
2021/09/16 10:09:26;;;;;;;5.37;2.65;;;;;;;21.48;36.35;100855.67;1691134;83;21008;-63
2021/09/16 10:11:53;;;;;;;7.80;4.28;;;;;;;21.49;35.72;100860.03;1701831;82;21083;-63
2021/09/16 10:14:21;;;;;;;5.37;2.27;;;;;;;21.52;34.98;100850.30;1706740;82;21027;-66
2021/09/16 10:16:48;;;;;;;4.50;1.35;;;;;;;21.55;35.87;100851.24;1736027;82;21439;-64
2021/09/16 10:19:17;;;;;;;5.22;2.00;;;;;;;21.63;35.47;100844.47;1710934;82;21110;-64
2021/09/16 10:21:45;;;;;;;10.82;2.00;;;;;;;21.69;35.50;100844.25;1713470;83;21463;-65
2021/09/16 10:24:13;;;;;;;4.40;1.20;;;;;;;21.73;35.40;100844.71;1719715;82;21083;-65
2021/09/16 10:26:43;;;;;;;4.28;1.32;;;;;;;21.75;35.17;100832.78;1691196;83;21119;-65
2021/09/16 10:29:32;;;;;;;3.80;1.30;;;;;;;21.76;35.03;100834.45;1734075;81;21049;-63
2021/09/16 10:32:10;;;;;;;4.17;1.37;;;;;;;21.80;34.84;100837.59;1721527;82;21603;-65
2021/09/16 10:34:58;;;;;;;7.03;1.55;;;;;;;21.80;34.01;100834.91;1713004;82;21719;-65
2021/09/16 10:37:33;;;;;;;4.97;1.40;;;;;;;21.74;34.71;100831.14;1702506;82;21050;-65
2021/09/16 10:40:00;;;;;;;4.92;1.25;;;;;;;21.73;35.35;100828.64;1714344;83;21593;-65
2021/09/16 10:42:49;;;;;;;3.22;1.07;;;;;;;21.75;34.81;100831.44;1712247;83;21077;-65
2021/09/16 10:45:29;;;;;;;3.60;1.07;;;;;;;21.78;34.50;100826.23;1713842;83;21322;-65
2021/09/16 10:48:19;;;;;;;4.17;1.40;;;;;;;21.80;34.09;100832.23;1686103;82;21109;-66
2021/09/16 10:50:54;;;;;;;6.72;1.60;;;;;;;21.80;34.54;100831.72;1738825;82;21326;-65
2021/09/16 10:53:37;;;;;;;5.28;1.50;;;;;;;21.83;34.87;100829.19;1710893;82;21607;-66
2021/09/16 10:56:08;;;;;;;6.47;1.90;;;;;;;21.89;34.85;100831.13;1765382;80;21141;-64
2021/09/16 10:58:36;;;;;;;6.05;1.77;;;;;;;21.94;34.96;100828.72;1746654;80;21108;-63
2021/09/16 11:01:03;;;;;;;5.62;1.85;;;;;;;21.99;34.42;100826.31;1734900;80;21510;-65
2021/09/16 11:03:29;;;;;;;4.95;1.62;;;;;;;22.01;34.88;100827.47;1770232;80;21557;-64
2021/09/16 11:05:58;;;;;;;4.22;1.90;;;;;;;22.06;35.13;100828.55;1714818;80;21006;-65
2021/09/16 11:08:39;;;;;;;6.42;2.58;;;;;;;22.12;35.02;100830.98;1759865;80;21082;-66
2021/09/16 11:11:05;;;;;;;5.50;1.47;;;;;;;22.16;34.36;100830.13;1756544;79;21115;-64
2021/09/16 11:13:40;;;;;;;4.30;1.50;;;;;;;22.19;35.29;100817.66;1765197;80;21011;-64
2021/09/16 11:16:08;;;;;;;7.15;1.55;;;;;;;22.21;35.03;100812.45;1760255;80;21048;-63
2021/09/16 11:18:35;;;;;;;4.53;1.50;;;;;;;22.24;35.58;100808.05;1762724;80;22020;-63
2021/09/16 11:21:06;;;;;;;3.83;1.62;;;;;;;22.30;35.24;100808.34;1761956;80;21127;-64
2021/09/16 11:23:44;;;;;;;4.72;2.05;;;;;;;22.36;35.20;100805.73;1760510;80;21130;-63
2021/09/16 11:26:18;;;;;;;4.08;1.47;;;;;;;22.43;35.70;100811.98;1761728;80;21062;-64